createdAt,value
2023-05-05T00:02:58.788Z,18.52
2023-05-05T00:05:26.636Z,18.53
2023-05-05T00:07:54.524Z,18.54
2023-05-05T00:10:22.431Z,18.51
2023-05-05T00:12:50.310Z,18.50
2023-05-05T01:01:16.849Z,18.47
2023-05-05T01:03:47.127Z,18.48
2023-05-05T01:06:19.426Z,18.47
2023-05-05T01:09:01.871Z,18.44
2023-05-05T01:11:32.354Z,18.46
2023-05-05T01:14:02.679Z,18.46
2023-05-05T01:48:33.641Z,18.46
2023-05-05T01:51:02.247Z,18.46
2023-05-05T01:53:30.100Z,18.43
2023-05-05T01:55:58.014Z,18.44
2023-05-05T01:58:26.202Z,18.43
2023-05-05T02:47:45.536Z,18.40
2023-05-05T02:50:14.295Z,18.39
2023-05-05T02:52:48.267Z,18.38
2023-05-05T02:55:17.671Z,18.38
2023-05-05T02:57:47.526Z,18.37
2023-05-05T03:47:12.345Z,18.32
2023-05-05T03:49:41.436Z,18.32
2023-05-05T03:52:09.740Z,18.35
2023-05-05T03:54:38.286Z,18.36
2023-05-05T03:57:06.206Z,18.38
2023-05-05T03:59:34.184Z,18.38
2023-05-05T04:46:07.957Z,18.40
2023-05-05T04:48:38.687Z,18.40
2023-05-05T04:51:08.093Z,18.40
2023-05-05T04:53:37.255Z,18.39
2023-05-05T04:56:05.242Z,18.39
2023-05-05T04:58:33.422Z,18.38
2023-05-05T05:01:01.497Z,18.38
2023-05-05T05:03:33.310Z,18.38
2023-05-05T05:06:01.827Z,18.37
2023-05-05T05:08:29.794Z,18.38
2023-05-05T05:10:57.716Z,18.40
2023-05-05T05:13:25.861Z,18.39
2023-05-05T05:15:53.909Z,18.40
2023-05-05T05:18:21.874Z,18.39
2023-05-05T05:20:53.573Z,18.39
2023-05-05T05:23:21.540Z,18.39
2023-05-05T05:25:49.484Z,18.38
2023-05-05T05:28:19.537Z,18.39
2023-05-05T05:30:52.758Z,18.40
2023-05-05T05:33:21.009Z,18.39
2023-05-05T05:35:49.574Z,18.41
2023-05-05T05:38:21.538Z,18.41
2023-05-05T05:40:52.635Z,18.41
2023-05-05T05:43:23.505Z,18.41
2023-05-05T05:45:52.057Z,18.40
2023-05-05T05:48:22.241Z,18.38
2023-05-05T05:50:50.457Z,18.37
2023-05-05T05:53:21.896Z,18.39
2023-05-05T05:55:52.839Z,18.40
2023-05-05T05:58:20.920Z,18.42
2023-05-05T06:00:49.318Z,18.44
2023-05-05T06:03:17.755Z,18.44
2023-05-05T06:05:46.077Z,18.44
2023-05-05T06:08:15.456Z,18.47
2023-05-05T06:10:49.412Z,18.46
2023-05-05T06:13:20.446Z,18.44
2023-05-05T06:15:51.491Z,18.45
2023-05-05T06:18:20.463Z,18.46
2023-05-05T06:20:50.395Z,18.47
2023-05-05T06:23:20.276Z,18.46
2023-05-05T06:25:57.670Z,18.47
2023-05-05T06:28:25.764Z,18.47
2023-05-05T06:30:56.848Z,18.48
2023-05-05T06:33:27.355Z,18.48
2023-05-05T06:35:55.417Z,18.47
2023-05-05T06:38:25.904Z,18.46
2023-05-05T06:40:55.458Z,18.46
2023-05-05T06:43:23.691Z,18.46
2023-05-05T06:45:58.460Z,18.45
2023-05-05T06:48:26.705Z,18.46
2023-05-05T06:50:55.158Z,18.47
2023-05-05T06:53:26.400Z,18.51
2023-05-05T06:56:01.681Z,18.51
2023-05-05T06:58:33.911Z,18.51
2023-05-05T07:01:14.674Z,18.51
2023-05-05T07:03:51.998Z,18.50
2023-05-05T07:06:29.702Z,18.51
2023-05-05T07:08:58.128Z,18.51
2023-05-05T07:11:38.892Z,18.51
2023-05-05T07:14:08.186Z,18.51
2023-05-05T07:16:38.233Z,18.53
2023-05-05T07:19:06.800Z,18.55
2023-05-05T07:21:40.559Z,18.54
2023-05-05T07:24:12.817Z,18.54
2023-05-05T07:26:42.424Z,18.54
2023-05-05T07:29:12.439Z,18.54
2023-05-05T07:31:46.003Z,18.55
2023-05-05T07:34:29.578Z,18.55
2023-05-05T07:37:01.127Z,18.55
2023-05-05T07:39:34.172Z,18.55
2023-05-05T07:42:08.119Z,18.55
2023-05-05T07:44:39.106Z,18.56
2023-05-05T07:47:07.361Z,18.55
2023-05-05T07:49:35.567Z,18.54
2023-05-05T07:52:11.945Z,18.53
2023-05-05T07:54:41.277Z,18.53
2023-05-05T07:57:14.029Z,18.53
2023-05-05T07:59:43.871Z,18.52
2023-05-05T08:02:12.888Z,18.50
2023-05-05T08:04:45.808Z,18.49
2023-05-05T08:07:14.335Z,18.52
2023-05-05T08:09:46.643Z,18.55
2023-05-05T08:15:17.428Z,18.54
2023-05-05T08:17:48.920Z,18.53
2023-05-05T08:20:18.284Z,18.55
2023-05-05T08:22:46.557Z,18.53
2023-05-05T08:25:14.749Z,18.55
2023-05-05T08:27:45.771Z,18.56
2023-05-05T08:30:20.861Z,18.56
2023-05-05T08:32:51.272Z,18.57
2023-05-05T08:35:21.093Z,18.59
2023-05-05T08:37:49.302Z,18.59
2023-05-05T08:40:26.647Z,18.59
2023-05-05T08:43:05.937Z,18.59
2023-05-05T08:45:34.118Z,18.59
2023-05-05T08:51:47.498Z,18.58
2023-05-05T08:54:16.528Z,18.58
2023-05-05T09:00:29.412Z,18.63
2023-05-05T09:02:57.674Z,18.64
2023-05-05T09:05:25.906Z,18.63
2023-05-05T09:07:58.202Z,18.61
2023-05-05T09:10:31.384Z,18.61
2023-05-05T09:13:03.768Z,18.61
2023-05-05T09:15:33.311Z,18.62
2023-05-05T09:18:01.569Z,18.61
2023-05-05T09:20:31.658Z,18.61
2023-05-05T09:22:59.651Z,18.62
2023-05-05T09:25:31.158Z,18.63
2023-05-05T09:27:59.094Z,18.64
2023-05-05T09:30:29.722Z,18.63
2023-05-05T09:32:59.083Z,18.62
2023-05-05T09:35:28.954Z,18.60
2023-05-05T09:37:56.972Z,18.59
2023-05-05T09:40:28.184Z,18.60
2023-05-05T09:43:01.854Z,18.59
2023-05-05T09:45:34.441Z,18.60
2023-05-05T09:48:04.146Z,18.61
2023-05-05T09:50:38.951Z,18.62
2023-05-05T09:53:07.299Z,18.62
2023-05-05T09:55:36.234Z,18.63
2023-05-05T09:58:28.179Z,18.60
2023-05-05T10:00:58.717Z,18.63
2023-05-05T10:03:39.979Z,18.63
2023-05-05T10:06:35.791Z,18.63
2023-05-05T10:09:26.075Z,18.62
2023-05-05T10:12:08.329Z,18.62
2023-05-05T10:15:03.262Z,18.64
2023-05-05T10:18:02.423Z,18.65
2023-05-05T10:20:43.132Z,18.65
2023-05-05T10:23:14.690Z,18.65
2023-05-05T10:26:00.580Z,18.63
2023-05-05T10:28:35.051Z,18.65
2023-05-05T10:31:10.036Z,18.64
2023-05-05T10:33:54.407Z,18.65
2023-05-05T10:36:30.020Z,18.64
2023-05-05T10:39:09.487Z,18.66
2023-05-05T10:41:39.442Z,18.68
2023-05-05T10:44:07.474Z,18.68
2023-05-05T10:46:35.768Z,18.69
2023-05-05T10:49:06.059Z,18.69
2023-05-05T10:51:40.513Z,18.69
2023-05-05T10:54:11.539Z,18.68
2023-05-05T10:56:40.701Z,18.68
2023-05-05T10:59:23.653Z,18.68
2023-05-05T11:01:53.098Z,18.65
2023-05-05T11:04:23.543Z,18.68
2023-05-05T11:07:13.396Z,18.71
2023-05-05T11:09:55.392Z,18.71
2023-05-05T11:12:35.497Z,18.71
2023-05-05T11:15:24.011Z,18.71
2023-05-05T11:17:52.347Z,18.70
2023-05-05T11:20:22.060Z,18.69
2023-05-05T11:23:09.155Z,18.65
2023-05-05T11:25:53.665Z,18.69
2023-05-05T11:28:23.321Z,18.70
2023-05-05T11:31:11.792Z,18.71
2023-05-05T11:33:39.956Z,18.73
2023-05-05T11:36:12.486Z,18.72
2023-05-05T11:38:49.712Z,18.70
2023-05-05T11:41:23.789Z,18.73
2023-05-05T11:43:56.229Z,18.73
2023-05-05T11:46:26.814Z,18.72
2023-05-05T11:49:01.979Z,18.72
2023-05-05T11:51:35.070Z,18.72
2023-05-05T11:54:03.194Z,18.72
2023-05-05T11:56:32.594Z,18.74
2023-05-05T11:59:07.465Z,18.74
2023-05-05T12:01:35.464Z,18.74
2023-05-05T12:04:03.611Z,18.74
2023-05-05T12:06:33.375Z,18.74
2023-05-05T12:09:01.812Z,18.74
2023-05-05T12:11:30.075Z,18.73
2023-05-05T12:14:14.919Z,18.74
2023-05-05T12:16:43.189Z,18.73
2023-05-05T12:19:14.584Z,18.74
2023-05-05T12:21:47.558Z,18.76
2023-05-05T12:24:15.752Z,18.76
2023-05-05T12:26:43.659Z,18.75
2023-05-05T12:29:11.612Z,18.74
2023-05-05T12:31:41.542Z,18.76
2023-05-05T12:34:12.319Z,18.75
2023-05-05T12:36:47.373Z,18.75
2023-05-05T12:39:16.375Z,18.73
2023-05-05T12:41:47.803Z,18.74
2023-05-05T12:44:16.222Z,18.74
2023-05-05T12:46:50.341Z,18.76
2023-05-05T12:49:18.379Z,18.77
2023-05-05T12:52:00.527Z,18.77
2023-05-05T12:54:32.110Z,18.77
2023-05-05T12:57:00.300Z,18.76
2023-05-05T12:59:34.033Z,18.78
2023-05-05T13:02:04.670Z,18.76
2023-05-05T13:04:35.763Z,18.76
2023-05-05T13:07:14.738Z,18.76
2023-05-05T13:09:47.094Z,18.77
2023-05-05T13:12:15.390Z,18.77
2023-05-05T13:14:48.518Z,18.79
2023-05-05T13:17:20.633Z,18.78
2023-05-05T13:19:54.808Z,18.77
2023-05-05T13:22:30.564Z,18.78
2023-05-05T13:25:00.992Z,18.77
2023-05-05T13:27:36.379Z,18.76
2023-05-05T13:30:07.112Z,18.75
2023-05-05T13:32:46.433Z,18.76
2023-05-05T13:35:16.814Z,18.76
2023-05-05T13:37:47.299Z,18.79
2023-05-05T13:40:15.626Z,18.79
2023-05-05T13:42:45.549Z,18.79
2023-05-05T13:45:14.448Z,18.78
2023-05-05T13:47:47.852Z,18.79
2023-05-05T13:50:27.561Z,18.77
2023-05-05T13:52:55.727Z,18.77
2023-05-05T13:55:25.443Z,18.78
2023-05-05T13:57:54.567Z,18.77
2023-05-05T14:00:22.561Z,18.78
2023-05-05T14:02:55.093Z,18.79
2023-05-05T14:05:29.597Z,18.80
2023-05-05T14:08:05.987Z,18.80
2023-05-05T14:13:33.918Z,18.79
2023-05-05T14:16:02.172Z,18.79
2023-05-05T14:18:31.830Z,18.78
2023-05-05T14:21:00.034Z,18.79
2023-05-05T14:23:27.934Z,18.78
2023-05-05T14:25:58.731Z,18.79
2023-05-05T14:28:26.877Z,18.80
2023-05-05T14:31:05.268Z,18.81
2023-05-05T14:33:34.701Z,18.80
2023-05-05T14:36:02.812Z,18.80
2023-05-05T14:38:30.867Z,18.80
2023-05-05T14:41:03.015Z,18.81
2023-05-05T14:43:31.091Z,18.80
2023-05-05T14:46:00.543Z,18.80
2023-05-05T14:48:31.396Z,18.80
2023-05-05T14:51:00.823Z,18.81
2023-05-05T14:53:28.724Z,18.82
2023-05-05T14:55:57.188Z,18.83
2023-05-05T14:58:25.580Z,18.84
2023-05-05T15:00:54.633Z,18.83
2023-05-05T15:03:22.775Z,18.81
2023-05-05T15:05:50.904Z,18.81
2023-05-05T15:08:22.380Z,18.82
2023-05-05T15:10:51.618Z,18.81
2023-05-05T15:13:22.190Z,18.81
2023-05-05T15:15:50.708Z,18.80
2023-05-05T15:18:18.660Z,18.81
2023-05-05T15:20:46.712Z,18.82
2023-05-05T15:23:17.700Z,18.83
2023-05-05T15:25:46.994Z,18.83
2023-05-05T15:28:14.962Z,18.83
2023-05-05T15:30:44.948Z,18.82
2023-05-05T15:33:13.288Z,18.82
2023-05-05T15:35:41.322Z,18.82
2023-05-05T15:38:09.225Z,18.81
2023-05-05T15:40:39.905Z,18.82
2023-05-05T15:43:09.390Z,18.82
2023-05-05T15:45:41.600Z,18.82
2023-05-05T15:48:09.623Z,18.84
2023-05-05T15:50:39.056Z,18.84
2023-05-05T15:53:10.144Z,18.83
2023-05-05T15:55:41.113Z,18.82
2023-05-05T15:58:10.390Z,18.83
2023-05-05T16:00:40.629Z,18.82
2023-05-05T16:03:08.794Z,18.82
2023-05-05T16:05:36.808Z,18.82
2023-05-05T16:08:09.927Z,18.81
2023-05-05T16:10:38.054Z,18.82
2023-05-05T16:13:14.181Z,18.84
2023-05-05T16:15:43.719Z,18.84
2023-05-05T16:18:11.834Z,18.82
2023-05-05T16:20:39.828Z,18.83
2023-05-05T16:23:08.109Z,18.82
2023-05-05T16:25:36.101Z,18.82
2023-05-05T16:28:04.189Z,18.81
2023-05-05T16:30:35.533Z,18.82
2023-05-05T16:33:04.979Z,18.83
2023-05-05T16:35:32.797Z,18.84
2023-05-05T16:38:00.616Z,18.85
2023-05-05T16:40:28.488Z,18.84
2023-05-05T16:42:56.573Z,18.85
2023-05-05T16:45:25.358Z,18.83
2023-05-05T16:47:55.557Z,18.83
2023-05-05T16:50:25.016Z,18.83
2023-05-05T16:52:52.986Z,18.84
2023-05-05T16:55:21.154Z,18.83
2023-05-05T16:57:51.005Z,18.82
2023-05-05T17:00:19.129Z,18.83
2023-05-05T17:02:47.275Z,18.84
2023-05-05T17:05:17.614Z,18.85
2023-05-05T17:07:49.899Z,18.85
2023-05-05T17:10:20.272Z,18.84
2023-05-05T17:12:48.248Z,18.85
2023-05-05T17:15:16.327Z,18.84
2023-05-05T17:17:44.241Z,18.83
2023-05-05T17:20:15.325Z,18.83
2023-05-05T17:22:43.239Z,18.82
2023-05-05T17:25:12.865Z,18.83
2023-05-05T17:27:40.898Z,18.85
2023-05-05T17:30:09.367Z,18.84
2023-05-05T17:32:37.332Z,18.84
2023-05-05T17:35:05.569Z,18.84
2023-05-05T17:37:34.988Z,18.84
2023-05-05T17:40:04.170Z,18.84
2023-05-05T17:42:34.161Z,18.83
2023-05-05T17:45:02.192Z,18.83
2023-05-05T17:47:32.578Z,18.83
2023-05-05T17:50:00.804Z,18.82
2023-05-05T17:52:29.022Z,18.83
2023-05-05T17:54:59.460Z,18.85
2023-05-05T17:57:30.165Z,18.84
2023-05-05T18:00:02.091Z,18.84
2023-05-05T18:02:43.377Z,18.83
2023-05-05T18:05:11.994Z,18.82
2023-05-05T18:07:40.130Z,18.82
2023-05-05T18:10:08.687Z,18.82
2023-05-05T18:12:36.639Z,18.81
2023-05-05T18:15:07.125Z,18.82
2023-05-05T18:17:35.703Z,18.82
2023-05-05T18:20:06.717Z,18.83
2023-05-05T18:22:34.665Z,18.84
2023-05-05T18:25:02.747Z,18.83
2023-05-05T18:27:32.495Z,18.83
2023-05-05T18:30:00.519Z,18.82
2023-05-05T18:32:30.450Z,18.82
2023-05-05T18:35:00.726Z,18.83
2023-05-05T18:37:30.638Z,18.82
2023-05-05T18:39:58.514Z,18.81
2023-05-05T18:42:26.919Z,18.81
2023-05-05T18:44:54.813Z,18.83
2023-05-05T18:47:23.646Z,18.83
2023-05-05T18:49:53.275Z,18.83
2023-05-05T18:52:21.822Z,18.83
2023-05-05T18:54:49.707Z,18.83
2023-05-05T18:57:17.632Z,18.82
2023-05-05T18:59:45.574Z,18.82
2023-05-05T19:02:13.440Z,18.81
2023-05-05T19:04:41.497Z,18.80
2023-05-05T19:07:35.548Z,18.80
2023-05-05T19:10:04.766Z,18.82
2023-05-05T19:12:32.992Z,18.84
2023-05-05T19:15:01.355Z,18.84
2023-05-05T19:17:30.978Z,18.83
2023-05-05T19:20:49.708Z,18.84
2023-05-05T19:23:18.953Z,18.83
2023-05-05T19:25:47.034Z,18.82
2023-05-05T19:28:14.936Z,18.82
2023-05-05T19:30:42.859Z,18.81
2023-05-05T19:33:10.753Z,18.82
2023-05-05T19:35:38.763Z,18.82
2023-05-05T19:38:06.727Z,18.83
2023-05-05T19:40:36.151Z,18.84
2023-05-05T19:43:04.310Z,18.84
2023-05-05T19:45:32.271Z,18.83
2023-05-05T19:48:01.584Z,18.84
2023-05-05T19:50:30.470Z,18.83
2023-05-05T19:52:58.417Z,18.82
2023-05-05T19:55:26.952Z,18.80
2023-05-05T19:57:56.263Z,18.80
2023-05-05T20:00:24.314Z,18.82
2023-05-05T20:02:52.289Z,18.84
2023-05-05T20:05:22.154Z,18.84
2023-05-05T20:07:51.316Z,18.84
2023-05-05T20:10:19.251Z,18.84
2023-05-05T20:12:49.134Z,18.84
2023-05-05T20:15:20.333Z,18.83
2023-05-05T20:17:48.335Z,18.84
2023-05-05T20:20:17.013Z,18.82
2023-05-05T20:22:45.031Z,18.80
2023-05-05T20:25:13.032Z,18.81
2023-05-05T20:27:41.494Z,18.82
2023-05-05T20:30:10.727Z,18.83
2023-05-05T20:32:40.285Z,18.84
2023-05-05T20:35:08.748Z,18.84
2023-05-05T20:37:36.616Z,18.82
2023-05-05T20:40:04.778Z,18.82
2023-05-05T20:42:32.892Z,18.80
2023-05-05T20:45:01.116Z,18.80
2023-05-05T20:47:29.198Z,18.80
2023-05-05T20:49:58.569Z,18.80
2023-05-05T20:52:26.736Z,18.82
2023-05-05T20:54:54.859Z,18.85
2023-05-05T20:57:22.794Z,18.85
2023-05-05T20:59:58.109Z,18.85
2023-05-05T21:02:26.201Z,18.84
2023-05-05T21:04:58.459Z,18.84
2023-05-05T21:07:28.014Z,18.83
2023-05-05T21:09:55.917Z,18.82
2023-05-05T21:12:24.004Z,18.83
2023-05-05T21:14:52.001Z,18.84
2023-05-05T21:17:19.911Z,18.85
2023-05-05T21:19:47.815Z,18.86
2023-05-05T21:22:15.850Z,18.86
2023-05-05T21:24:55.082Z,18.84
2023-05-05T21:27:23.350Z,18.84
2023-05-05T21:29:52.089Z,18.85
2023-05-05T21:32:22.131Z,18.84
2023-05-05T21:34:50.517Z,18.84
2023-05-05T21:37:18.611Z,18.84
2023-05-05T21:39:46.586Z,18.84
2023-05-05T21:42:16.105Z,18.84
2023-05-05T21:44:44.142Z,18.85
2023-05-05T21:47:12.420Z,18.84
2023-05-05T21:49:40.558Z,18.84
2023-05-05T21:52:08.587Z,18.84
2023-05-05T21:54:36.816Z,18.84
2023-05-05T21:57:04.865Z,18.83
2023-05-05T21:59:34.515Z,18.82
2023-05-05T22:02:02.682Z,18.81
2023-05-05T22:04:30.841Z,18.81
2023-05-05T22:07:00.686Z,18.82
2023-05-05T22:09:28.818Z,18.83
2023-05-05T22:11:57.073Z,18.83
2023-05-05T22:14:25.347Z,18.83
2023-05-05T22:16:55.356Z,18.84
2023-05-05T22:19:23.700Z,18.82
2023-05-05T22:21:52.278Z,18.82
2023-05-05T22:24:26.612Z,18.82
2023-05-05T22:26:56.929Z,18.81
2023-05-05T22:29:25.325Z,18.80
2023-05-05T22:31:55.141Z,18.80
2023-05-05T22:34:24.035Z,18.80
2023-05-05T22:36:52.289Z,18.81
2023-05-05T22:39:20.574Z,18.82
2023-05-05T22:41:49.689Z,18.82
2023-05-05T22:47:43.304Z,18.80
2023-05-05T22:50:14.767Z,18.80
2023-05-05T22:52:46.601Z,18.78
2023-05-05T22:55:17.813Z,18.79
2023-05-05T22:57:46.112Z,18.78
2023-05-05T23:00:14.832Z,18.78
2023-05-05T23:02:44.557Z,18.80
2023-05-05T23:05:13.043Z,18.79
2023-05-05T23:07:41.355Z,18.79
2023-05-05T23:10:15.362Z,18.78
2023-05-05T23:12:43.431Z,18.78
2023-05-05T23:15:12.255Z,18.77
2023-05-05T23:17:40.854Z,18.78
2023-05-05T23:20:14.175Z,18.77
2023-05-05T23:22:42.657Z,18.76
2023-05-05T23:25:11.095Z,18.77
2023-05-05T23:27:39.794Z,18.78
